Time;durP1;ratioP1;P1;durP2;ratioP2;P2;SDS_P1;SDS_P2;PMS_P1;PMS_P2;Temp;Humidity;BMP_temperature;BMP_pressure;BME280_temperature;BME280_humidity;BME280_pressure;Samples;Min_cycle;Max_cycle;Signal;HPM_P1;HPM_P2
2023/09/24 00:01:38;;;;;;;4.07;2.28;;;11.20;99.90;;;;;;4992994;28;20101;-80
2023/09/24 00:04:04;;;;;;;2.13;1.80;;;11.20;99.90;;;;;;5013757;28;20041;-80
2023/09/24 00:06:30;;;;;;;2.92;2.22;;;11.10;99.90;;;;;;4994687;28;20045;-80
2023/09/24 00:08:56;;;;;;;2.83;2.17;;;11.00;99.90;;;;;;4994214;28;20038;-80
2023/09/24 00:11:21;;;;;;;3.20;2.40;;;11.00;99.90;;;;;;5013749;28;20053;-80
2023/09/24 00:13:47;;;;;;;3.40;3.10;;;11.00;99.90;;;;;;5029630;28;20064;-80
2023/09/24 00:16:14;;;;;;;3.00;2.42;;;11.00;99.90;;;;;;5013374;28;20045;-80
2023/09/24 00:18:39;;;;;;;3.97;2.40;;;11.10;99.90;;;;;;4997181;28;20559;-80
2023/09/24 00:21:06;;;;;;;2.97;2.67;;;11.10;99.90;;;;;;4991143;28;20091;-80
2023/09/24 00:23:32;;;;;;;3.85;2.40;;;11.10;99.90;;;;;;5029874;28;20041;-80
2023/09/24 00:25:59;;;;;;;3.80;2.42;;;11.00;99.90;;;;;;5010274;28;20045;-80
2023/09/24 00:28:25;;;;;;;3.20;2.63;;;11.00;99.90;;;;;;5014013;28;20334;-80
2023/09/24 00:30:55;;;;;;;3.67;2.70;;;11.00;99.90;;;;;;5011385;28;20258;-80
2023/09/24 00:33:22;;;;;;;3.03;2.58;;;11.00;99.90;;;;;;4994068;28;20112;-80
2023/09/24 00:35:48;;;;;;;3.67;2.60;;;11.00;99.90;;;;;;5013009;28;20090;-80
2023/09/24 00:38:13;;;;;;;2.85;2.35;;;11.00;99.90;;;;;;4994343;28;20381;-80
2023/09/24 00:40:39;;;;;;;3.15;2.75;;;11.00;99.90;;;;;;5006502;28;20041;-80
2023/09/24 00:43:27;;;;;;;3.38;2.80;;;11.00;99.90;;;;;;5007771;28;20245;-80
2023/09/24 00:45:54;;;;;;;3.70;2.50;;;11.00;99.90;;;;;;5023072;28;20172;-80
2023/09/24 00:48:20;;;;;;;3.72;2.40;;;11.00;99.90;;;;;;5026657;28;20041;-80
2023/09/24 00:50:46;;;;;;;3.95;2.80;;;10.90;99.90;;;;;;4989101;28;20045;-80
2023/09/24 00:53:12;;;;;;;4.03;2.58;;;10.90;99.90;;;;;;4980821;28;20068;-80
2023/09/24 00:55:38;;;;;;;6.28;2.72;;;10.90;99.90;;;;;;5030002;28;20130;-80
2023/09/24 00:58:05;;;;;;;3.25;2.50;;;10.90;99.90;;;;;;5029647;28;20053;-80
2023/09/24 01:00:34;;;;;;;4.07;2.50;;;10.90;99.90;;;;;;5029513;28;20041;-80
2023/09/24 01:03:00;;;;;;;3.60;2.30;;;10.90;99.90;;;;;;5013152;28;20116;-80
2023/09/24 01:05:27;;;;;;;2.70;2.20;;;10.90;99.90;;;;;;5007820;28;20100;-80
2023/09/24 01:07:54;;;;;;;3.08;2.38;;;10.90;99.90;;;;;;5007574;28;20044;-80
2023/09/24 01:10:26;;;;;;;3.95;2.40;;;10.90;99.90;;;;;;4996605;28;20095;-80
2023/09/24 01:12:59;;;;;;;2.97;2.40;;;10.90;99.90;;;;;;5029857;28;20038;-80
2023/09/24 01:15:25;;;;;;;3.80;2.55;;;10.90;99.90;;;;;;5013508;28;20357;-80
2023/09/24 01:17:52;;;;;;;2.95;2.42;;;10.90;99.90;;;;;;4999668;28;20183;-80
2023/09/24 01:20:21;;;;;;;3.08;2.45;;;10.90;99.90;;;;;;4997048;28;20041;-80
2023/09/24 01:22:48;;;;;;;3.30;2.47;;;10.90;99.90;;;;;;5029812;28;20129;-80
2023/09/24 01:25:14;;;;;;;3.80;2.72;;;10.90;99.90;;;;;;4990096;28;20042;-80
2023/09/24 01:27:40;;;;;;;5.88;2.90;;;10.90;99.90;;;;;;4981131;28;20037;-80
2023/09/24 01:30:06;;;;;;;4.45;2.88;;;10.90;99.90;;;;;;5026208;28;20045;-80
2023/09/24 01:32:32;;;;;;;5.57;3.22;;;11.00;99.90;;;;;;4998762;28;20037;-81
2023/09/24 01:35:05;;;;;;;7.95;4.10;;;11.00;99.90;;;;;;5014711;28;20104;-80
2023/09/24 01:37:33;;;;;;;6.82;3.20;;;11.10;99.90;;;;;;4981438;28;20037;-80
2023/09/24 01:40:06;;;;;;;5.07;3.15;;;11.20;99.90;;;;;;5015627;28;20559;-80
2023/09/24 01:42:34;;;;;;;4.72;3.15;;;11.10;99.90;;;;;;5029390;28;20052;-80
2023/09/24 01:44:59;;;;;;;3.60;3.10;;;11.10;99.90;;;;;;5029083;28;20049;-80
2023/09/24 01:47:25;;;;;;;4.07;3.30;;;11.10;99.90;;;;;;4998863;28;20037;-80
2023/09/24 01:49:51;;;;;;;3.58;2.75;;;11.10;99.90;;;;;;4983181;28;20455;-80
2023/09/24 01:52:16;;;;;;;4.72;3.00;;;11.10;99.90;;;;;;5015671;28;20084;-80
2023/09/24 01:54:42;;;;;;;5.15;3.35;;;11.10;99.90;;;;;;4999016;28;20047;-80
2023/09/24 01:57:08;;;;;;;4.45;3.47;;;11.10;99.90;;;;;;5014090;28;20041;-80
2023/09/24 01:59:34;;;;;;;10.15;4.05;;;11.00;99.90;;;;;;4999606;28;20044;-80
2023/09/24 02:01:59;;;;;;;3.83;3.25;;;11.00;99.90;;;;;;5031930;28;20175;-80
2023/09/24 02:04:25;;;;;;;5.45;3.25;;;11.00;99.90;;;;;;5016083;28;20507;-80
2023/09/24 02:06:51;;;;;;;14.55;4.35;;;11.00;99.90;;;;;;4995004;28;20099;-80
2023/09/24 02:09:17;;;;;;;43.28;6.72;;;11.00;99.90;;;;;;5000808;28;20034;-80
2023/09/24 02:11:42;;;;;;;30.65;5.50;;;11.00;99.90;;;;;;4996380;28;20470;-80
2023/09/24 02:14:08;;;;;;;34.53;6.60;;;11.10;99.90;;;;;;5016271;28;20048;-80
2023/09/24 02:16:35;;;;;;;30.30;6.13;;;11.10;99.90;;;;;;4993353;28;20048;-80
2023/09/24 02:19:01;;;;;;;67.07;6.47;;;11.10;99.90;;;;;;4999616;28;20168;-80
2023/09/24 02:21:29;;;;;;;107.55;9.07;;;11.10;99.90;;;;;;4999372;28;20087;-80
2023/09/24 02:23:55;;;;;;;60.72;6.82;;;11.10;99.90;;;;;;5000079;28;20033;-80
2023/09/24 02:26:21;;;;;;;76.55;7.28;;;11.10;99.90;;;;;;4982026;28;20053;-80
2023/09/24 02:28:47;;;;;;;32.83;5.40;;;11.10;99.90;;;;;;4993106;28;20456;-80
2023/09/24 02:31:12;;;;;;;62.10;6.70;;;11.10;99.90;;;;;;4997092;28;20045;-80
2023/09/24 02:33:38;;;;;;;18.98;4.95;;;11.10;99.90;;;;;;4982364;28;20388;-79
2023/09/24 02:36:08;;;;;;;32.42;5.82;;;11.10;99.90;;;;;;5031571;28;20091;-80
2023/09/24 02:38:34;;;;;;;91.75;8.10;;;11.10;99.90;;;;;;4992655;28;20045;-79
2023/09/24 02:41:00;;;;;;;94.82;7.70;;;11.10;99.90;;;;;;5012230;28;20123;-81
2023/09/24 02:43:27;;;;;;;159.48;10.60;;;11.10;99.90;;;;;;5015185;28;20033;-80
2023/09/24 02:45:53;;;;;;;241.13;14.52;;;11.10;99.90;;;;;;4999288;28;20039;-80
2023/09/24 02:48:18;;;;;;;207.85;13.23;;;11.10;99.90;;;;;;4980119;28;20124;-80
2023/09/24 02:50:44;;;;;;;177.27;12.15;;;11.10;99.90;;;;;;5007401;28;20049;-80
2023/09/24 02:53:10;;;;;;;366.05;20.55;;;11.10;99.90;;;;;;5013917;28;20762;-80
2023/09/24 02:55:37;;;;;;;118.72;10.57;;;11.10;99.90;;;;;;4992471;28;20046;-80
2023/09/24 02:58:05;;;;;;;91.68;8.63;;;11.10;99.90;;;;;;5015599;28;20056;-79
2023/09/24 03:00:36;;;;;;;132.80;11.13;;;11.10;99.90;;;;;;5002836;28;20057;-80
2023/09/24 03:03:05;;;;;;;113.68;10.57;;;11.10;99.90;;;;;;5031063;28;20474;-80
2023/09/24 03:05:31;;;;;;;78.95;8.45;;;11.10;99.90;;;;;;5031618;28;20057;-80
2023/09/24 03:08:02;;;;;;;110.13;9.88;;;11.10;99.90;;;;;;5003688;28;20052;-80
2023/09/24 03:10:31;;;;;;;160.05;12.32;;;11.10;99.90;;;;;;5012402;28;20029;-80
2023/09/24 03:12:57;;;;;;;74.22;8.00;;;11.00;99.90;;;;;;5012010;28;20072;-80
2023/09/24 03:15:23;;;;;;;66.75;7.35;;;11.00;99.90;;;;;;4998294;28;20042;-80
2023/09/24 03:17:49;;;;;;;123.57;9.25;;;11.00;99.90;;;;;;5014834;28;20095;-80
2023/09/24 03:20:19;;;;;;;92.07;9.77;;;11.00;99.90;;;;;;5009057;28;20134;-80
2023/09/24 03:22:55;;;;;;;72.43;7.63;;;11.00;99.90;;;;;;4998545;28;20175;-80
2023/09/24 03:25:26;;;;;;;64.85;7.63;;;10.90;99.90;;;;;;5012003;28;20041;-80
2023/09/24 03:27:54;;;;;;;81.03;9.25;;;10.90;99.90;;;;;;5013130;28;20041;-80
2023/09/24 03:30:20;;;;;;;67.93;8.93;;;10.90;99.90;;;;;;5006205;28;20049;-80
2023/09/24 03:32:48;;;;;;;24.48;7.03;;;10.90;99.90;;;;;;5010265;28;20108;-80
2023/09/24 03:35:15;;;;;;;64.70;7.93;;;10.90;99.90;;;;;;5010144;28;20042;-80
2023/09/24 03:37:44;;;;;;;52.30;7.65;;;10.90;99.90;;;;;;5014326;28;20048;-80
2023/09/24 03:40:12;;;;;;;78.18;9.07;;;10.90;99.90;;;;;;4996930;28;20040;-80
2023/09/24 03:42:39;;;;;;;89.78;9.60;;;10.90;99.90;;;;;;5014196;28;20029;-79
2023/09/24 03:45:14;;;;;;;91.78;9.13;;;10.90;99.90;;;;;;5024029;28;20041;-80
2023/09/24 03:47:40;;;;;;;44.33;7.43;;;10.80;99.90;;;;;;5028358;28;20038;-80
2023/09/24 03:50:10;;;;;;;69.00;8.05;;;10.80;99.90;;;;;;5014246;28;20150;-79
2023/09/24 03:52:37;;;;;;;67.53;8.25;;;10.80;99.90;;;;;;4998824;28;20489;-79
2023/09/24 03:55:04;;;;;;;41.92;7.53;;;10.80;99.90;;;;;;5011541;28;20040;-80
2023/09/24 03:57:30;;;;;;;27.95;6.75;;;10.80;99.90;;;;;;5009208;28;20045;-80
2023/09/24 03:59:57;;;;;;;25.92;7.43;;;10.80;99.90;;;;;;4997476;28;20056;-81
2023/09/24 04:02:24;;;;;;;12.07;7.05;;;10.80;99.90;;;;;;4991152;28;20049;-80
2023/09/24 04:04:50;;;;;;;8.13;6.28;;;10.80;99.90;;;;;;5013878;28;20125;-80
2023/09/24 04:07:20;;;;;;;8.40;6.18;;;10.80;99.90;;;;;;5030518;28;20823;-80
2023/09/24 04:09:46;;;;;;;8.10;6.68;;;10.80;99.90;;;;;;5026142;28;20091;-80
2023/09/24 04:12:17;;;;;;;;;;;10.80;99.90;;;;;;5030707;28;20072;-80
2023/09/24 04:14:43;;;;;;;6.95;6.20;;;10.70;99.90;;;;;;5025393;28;19917;-80
2023/09/24 04:17:09;;;;;;;8.07;5.78;;;10.70;99.90;;;;;;5029004;28;20041;-80
2023/09/24 04:19:35;;;;;;;5.70;5.10;;;10.70;99.90;;;;;;5004355;28;20108;-80
2023/09/24 04:22:01;;;;;;;7.13;6.20;;;10.70;99.90;;;;;;5008259;28;20416;-80
2023/09/24 04:24:26;;;;;;;7.20;6.35;;;10.60;99.90;;;;;;4997114;28;20608;-80
2023/09/24 04:26:52;;;;;;;7.97;6.50;;;10.60;99.90;;;;;;5013084;28;20040;-80
2023/09/24 04:29:18;;;;;;;7.00;6.07;;;10.60;99.90;;;;;;4992780;28;20066;-80
2023/09/24 04:31:44;;;;;;;7.97;6.80;;;10.60;99.90;;;;;;5026527;28;20045;-80
2023/09/24 04:34:12;;;;;;;5.57;5.00;;;10.60;99.90;;;;;;5013371;28;20049;-80
2023/09/24 04:36:42;;;;;;;8.20;6.40;;;10.50;99.90;;;;;;5029787;28;20128;-80
2023/09/24 04:39:11;;;;;;;6.55;5.85;;;10.50;99.90;;;;;;5024406;28;20041;-79
2023/09/24 04:41:42;;;;;;;8.00;5.67;;;10.50;99.90;;;;;;5010493;28;20038;-80
2023/09/24 04:44:08;;;;;;;9.85;7.28;;;10.50;99.90;;;;;;4992065;28;20397;-80
2023/09/24 04:46:35;;;;;;;8.95;6.90;;;10.50;99.90;;;;;;5012748;28;20034;-80
2023/09/24 04:49:04;;;;;;;8.73;7.10;;;10.50;99.90;;;;;;5000600;28;20041;-79
2023/09/24 04:51:34;;;;;;;7.32;6.30;;;10.50;99.90;;;;;;5017576;28;20041;-80
2023/09/24 04:54:00;;;;;;;7.10;6.10;;;10.50;99.90;;;;;;5013771;28;20049;-80
2023/09/24 04:56:27;;;;;;;7.65;6.55;;;10.50;99.90;;;;;;5014043;28;20052;-80
2023/09/24 04:58:53;;;;;;;10.18;6.93;;;10.50;99.90;;;;;;4987674;28;20393;-80
2023/09/24 05:01:19;;;;;;;7.22;6.05;;;10.50;99.90;;;;;;5019052;28;20048;-79
2023/09/24 05:03:48;;;;;;;7.22;6.32;;;10.40;99.90;;;;;;5016809;28;20053;-80
2023/09/24 05:06:14;;;;;;;13.25;8.50;;;10.50;99.90;;;;;;5033335;28;20045;-79
2023/09/24 05:08:40;;;;;;;13.43;7.40;;;10.40;99.90;;;;;;5034514;28;20108;-79
2023/09/24 05:11:05;;;;;;;12.83;8.07;;;10.40;99.90;;;;;;5000132;28;20041;-79
2023/09/24 05:13:31;;;;;;;11.83;7.93;;;10.40;99.90;;;;;;5016266;28;20041;-79
2023/09/24 05:16:00;;;;;;;8.50;7.18;;;10.50;99.90;;;;;;5001784;28;20381;-79
2023/09/24 05:18:29;;;;;;;12.02;8.15;;;10.50;99.90;;;;;;4999876;28;20037;-79
2023/09/24 05:20:56;;;;;;;10.50;8.07;;;10.50;99.90;;;;;;5027318;28;20045;-80
2023/09/24 05:23:22;;;;;;;8.18;7.35;;;10.40;99.90;;;;;;5017319;28;20048;-80
2023/09/24 05:25:49;;;;;;;8.77;7.88;;;10.50;99.90;;;;;;5002252;28;20041;-79
2023/09/24 05:28:15;;;;;;;12.73;8.60;;;10.50;99.90;;;;;;5034986;28;20069;-80
2023/09/24 05:30:40;;;;;;;11.93;8.10;;;10.40;99.90;;;;;;4984118;28;20146;-80
2023/09/24 05:33:07;;;;;;;12.20;7.60;;;10.50;99.90;;;;;;4999678;28;20041;-79
2023/09/24 05:35:32;;;;;;;11.63;7.65;;;10.50;99.90;;;;;;5017516;28;20034;-80
2023/09/24 05:37:58;;;;;;;12.57;7.78;;;10.40;99.90;;;;;;4985286;28;20391;-79
2023/09/24 05:40:24;;;;;;;10.35;7.53;;;10.50;99.90;;;;;;5019232;28;20037;-80
2023/09/24 05:42:50;;;;;;;13.57;9.03;;;10.40;99.90;;;;;;5001499;28;20033;-80
2023/09/24 05:45:16;;;;;;;15.68;8.82;;;10.50;99.90;;;;;;5018965;28;20132;-79
2023/09/24 05:47:42;;;;;;;11.65;8.80;;;10.40;99.90;;;;;;5019606;28;20132;-79
2023/09/24 05:50:08;;;;;;;11.27;8.30;;;10.40;99.90;;;;;;5035882;28;20037;-80
2023/09/24 05:52:33;;;;;;;13.73;8.80;;;10.50;99.90;;;;;;5036191;28;20042;-80
2023/09/24 05:54:59;;;;;;;14.73;9.65;;;10.40;99.90;;;;;;5019819;28;20067;-80
2023/09/24 05:57:28;;;;;;;11.00;8.43;;;10.50;99.90;;;;;;5019349;28;20473;-80
2023/09/24 05:59:55;;;;;;;12.37;9.30;;;10.50;99.90;;;;;;5018898;28;20049;-79
2023/09/24 06:02:27;;;;;;;15.13;9.13;;;10.50;99.90;;;;;;4999792;28;20398;-79
2023/09/24 06:04:56;;;;;;;12.85;9.30;;;10.50;99.90;;;;;;5029075;28;20049;-79
2023/09/24 06:07:22;;;;;;;16.37;9.40;;;10.50;99.90;;;;;;5011145;28;20037;-79
2023/09/24 06:09:48;;;;;;;13.88;9.02;;;10.60;99.90;;;;;;5007527;28;20118;-79
2023/09/24 06:12:14;;;;;;;12.87;9.10;;;10.60;99.90;;;;;;5014583;28;20081;-79
2023/09/24 06:14:39;;;;;;;16.17;9.57;;;10.50;99.90;;;;;;4999755;28;20077;-80
2023/09/24 06:17:05;;;;;;;14.23;9.45;;;10.60;99.90;;;;;;4999905;28;20046;-79
2023/09/24 06:19:32;;;;;;;14.63;9.25;;;10.60;99.90;;;;;;5015944;28;20489;-79
2023/09/24 06:21:58;;;;;;;14.90;8.63;;;10.60;99.90;;;;;;4999588;28;20037;-79
2023/09/24 06:24:24;;;;;;;11.20;8.43;;;10.60;99.90;;;;;;5032332;28;20048;-79
2023/09/24 06:26:49;;;;;;;15.67;9.80;;;10.70;99.90;;;;;;4988040;28;20034;-79
2023/09/24 06:29:15;;;;;;;12.75;8.90;;;10.70;99.90;;;;;;5018760;28;20094;-79
2023/09/24 06:31:41;;;;;;;12.88;9.77;;;10.70;99.90;;;;;;5010396;28;20568;-79
2023/09/24 06:34:08;;;;;;;15.95;9.70;;;10.70;99.90;;;;;;5009491;28;20041;-79
2023/09/24 06:36:34;;;;;;;15.87;10.17;;;10.80;99.90;;;;;;5032478;28;20053;-78
2023/09/24 06:39:00;;;;;;;13.87;10.07;;;10.80;99.90;;;;;;5028635;28;20060;-78
2023/09/24 06:41:25;;;;;;;15.57;10.10;;;10.80;99.90;;;;;;5005895;28;20088;-78
2023/09/24 06:43:52;;;;;;;15.40;9.88;;;10.90;99.90;;;;;;5031266;28;20448;-78
2023/09/24 06:46:18;;;;;;;17.27;10.43;;;11.00;99.90;;;;;;5031389;28;20052;-78
2023/09/24 06:48:44;;;;;;;16.63;9.93;;;11.00;99.90;;;;;;5013687;28;20540;-78
2023/09/24 06:51:10;;;;;;;14.82;10.60;;;11.10;99.90;;;;;;5013818;28;20124;-78
2023/09/24 06:53:39;;;;;;;21.02;10.80;;;11.20;99.90;;;;;;5009512;28;20440;-78
2023/09/24 06:56:08;;;;;;;17.98;11.18;;;11.20;99.90;;;;;;5014841;28;20038;-78
2023/09/24 06:58:35;;;;;;;15.73;10.50;;;11.30;99.90;;;;;;5030367;28;20044;-78
2023/09/24 07:01:03;;;;;;;15.75;10.88;;;11.30;99.90;;;;;;5014127;28;20816;-78
2023/09/24 07:03:32;;;;;;;14.63;10.82;;;11.40;99.90;;;;;;5013856;28;20057;-78
2023/09/24 07:05:58;;;;;;;14.90;10.80;;;11.50;99.90;;;;;;4995907;28;20037;-78
2023/09/24 07:08:24;;;;;;;14.77;10.48;;;11.50;99.90;;;;;;5009887;28;20046;-78
2023/09/24 07:11:23;;;;;;;15.70;10.52;;;11.60;99.90;;;;;;5013819;28;20393;-78
2023/09/24 07:13:49;;;;;;;17.40;10.68;;;11.70;99.90;;;;;;5014156;28;20446;-77
2023/09/24 07:16:15;;;;;;;16.58;10.70;;;11.70;99.90;;;;;;5029833;28;20109;-77
2023/09/24 07:18:41;;;;;;;16.13;11.65;;;11.70;99.90;;;;;;4981737;28;20132;-78
2023/09/24 07:21:07;;;;;;;15.60;10.68;;;11.80;99.90;;;;;;5030245;28;20493;-78
2023/09/24 07:23:33;;;;;;;15.60;10.73;;;11.90;99.90;;;;;;4997589;28;20033;-78
2023/09/24 07:25:59;;;;;;;17.40;10.88;;;12.00;99.90;;;;;;5013753;28;20377;-78
2023/09/24 07:28:25;;;;;;;17.30;10.55;;;12.00;99.90;;;;;;5013781;28;20041;-78
2023/09/24 07:30:52;;;;;;;15.80;10.93;;;12.10;99.90;;;;;;4994854;28;20048;-79
2023/09/24 07:33:23;;;;;;;14.60;10.57;;;12.10;99.90;;;;;;4998099;28;20041;-78
2023/09/24 07:35:49;;;;;;;12.73;10.05;;;12.20;99.90;;;;;;5014288;28;20041;-78
2023/09/24 07:38:15;;;;;;;15.90;10.07;;;12.20;99.90;;;;;;4995837;28;20512;-78
2023/09/24 07:40:41;;;;;;;14.85;10.63;;;12.30;99.90;;;;;;4996361;28;20123;-79
2023/09/24 07:43:08;;;;;;;15.85;10.50;;;12.30;99.90;;;;;;5029974;28;20041;-78
2023/09/24 07:45:35;;;;;;;16.55;10.75;;;12.40;99.90;;;;;;4981299;28;20037;-78
2023/09/24 07:48:02;;;;;;;17.50;11.23;;;12.50;99.90;;;;;;5029134;28;20588;-78
2023/09/24 07:50:27;;;;;;;14.93;10.02;;;12.50;99.90;;;;;;4996334;28;20080;-78
2023/09/24 07:52:53;;;;;;;15.85;10.95;;;12.60;99.90;;;;;;5029677;28;20069;-78
2023/09/24 07:55:19;;;;;;;15.10;10.60;;;12.70;99.90;;;;;;5013583;28;20120;-78
2023/09/24 07:57:44;;;;;;;14.98;9.77;;;12.70;99.90;;;;;;5012812;28;20469;-78
2023/09/24 08:00:11;;;;;;;18.17;10.52;;;12.80;99.90;;;;;;5012776;28;20095;-78
2023/09/24 08:02:36;;;;;;;16.90;9.77;;;12.90;99.90;;;;;;5028775;28;20115;-78
2023/09/24 08:05:02;;;;;;;15.90;9.98;;;13.00;99.90;;;;;;5029733;28;20432;-78
2023/09/24 08:07:32;;;;;;;12.98;9.07;;;13.10;99.90;;;;;;4997062;28;20079;-77
2023/09/24 08:09:58;;;;;;;12.48;9.02;;;13.10;99.90;;;;;;5028916;28;20067;-78
2023/09/24 08:12:23;;;;;;;15.25;9.93;;;13.20;99.90;;;;;;4990843;28;20048;-79
2023/09/24 08:14:49;;;;;;;12.43;9.57;;;13.30;99.90;;;;;;4991906;28;20458;-78
2023/09/24 08:17:15;;;;;;;13.00;9.48;;;13.40;99.90;;;;;;5029645;28;20111;-78
2023/09/24 08:19:40;;;;;;;17.85;8.95;;;13.50;99.90;;;;;;5029245;28;20539;-78
2023/09/24 08:22:06;;;;;;;13.95;9.27;;;13.60;99.90;;;;;;5007850;28;20050;-78
2023/09/24 08:24:32;;;;;;;15.10;9.13;;;13.70;99.90;;;;;;5024025;28;20048;-79
2023/09/24 08:26:58;;;;;;;13.05;8.95;;;13.80;99.90;;;;;;4996423;28;20549;-79
2023/09/24 08:29:24;;;;;;;14.93;8.75;;;13.90;99.90;;;;;;5012496;28;20029;-79
2023/09/24 08:31:49;;;;;;;12.50;8.65;;;14.00;99.90;;;;;;5029147;28;20052;-77
2023/09/24 08:34:15;;;;;;;13.52;7.93;;;14.10;99.90;;;;;;5013137;28;20159;-78
2023/09/24 08:36:41;;;;;;;12.43;8.30;;;14.20;99.90;;;;;;5029718;28;20041;-78
2023/09/24 08:39:08;;;;;;;16.30;8.27;;;14.30;99.90;;;;;;4997139;28;20512;-79
2023/09/24 08:41:41;;;;;;;14.18;8.18;;;14.30;99.90;;;;;;5028981;28;20038;-79
2023/09/24 08:44:11;;;;;;;12.45;8.50;;;14.40;99.90;;;;;;5012211;28;20045;-78
2023/09/24 08:46:37;;;;;;;10.68;7.80;;;14.40;99.90;;;;;;5022962;28;20547;-79
2023/09/24 08:49:04;;;;;;;9.30;7.13;;;14.50;99.90;;;;;;4996787;28;20036;-78
2023/09/24 08:51:33;;;;;;;13.05;7.20;;;14.60;99.90;;;;;;5029408;28;20045;-79
2023/09/24 08:54:00;;;;;;;12.35;6.95;;;14.70;99.90;;;;;;5028795;28;20041;-78
2023/09/24 08:56:26;;;;;;;11.27;6.88;;;14.70;99.90;;;;;;5029150;28;20124;-79
2023/09/24 08:58:53;;;;;;;9.77;6.30;;;14.80;99.90;;;;;;5013039;28;20069;-78
2023/09/24 09:01:18;;;;;;;11.70;6.68;;;14.90;99.90;;;;;;5012938;28;20044;-79
2023/09/24 09:03:45;;;;;;;9.68;6.82;;;15.00;99.90;;;;;;5012708;28;20046;-79
2023/09/24 09:06:35;;;;;;;10.77;6.88;;;15.10;99.90;;;;;;5020661;28;20426;-78
2023/09/24 09:09:02;;;;;;;9.05;6.10;;;15.20;99.90;;;;;;5007388;28;20041;-77
2023/09/24 09:11:42;;;;;;;10.85;6.07;;;15.30;99.90;;;;;;5026852;28;20041;-79
2023/09/24 09:14:10;;;;;;;9.40;5.80;;;15.40;99.90;;;;;;5029313;28;20409;-78
2023/09/24 09:16:57;;;;;;;10.68;6.00;;;15.50;99.90;;;;;;5028930;28;20472;-78
2023/09/24 09:19:23;;;;;;;9.40;5.20;;;15.50;99.90;;;;;;5009127;28;20084;-79
2023/09/24 09:21:49;;;;;;;10.50;5.38;;;15.60;99.90;;;;;;5006746;28;20029;-79
2023/09/24 09:24:24;;;;;;;7.40;5.15;;;15.60;99.90;;;;;;5019154;28;20041;-79
2023/09/24 09:26:57;;;;;;;8.77;4.72;;;15.70;99.90;;;;;;4996545;28;20037;-79
2023/09/24 09:29:25;;;;;;;8.68;4.97;;;15.70;99.90;;;;;;5001131;28;20037;-79
2023/09/24 09:31:51;;;;;;;7.78;4.38;;;15.80;99.90;;;;;;5019826;28;20042;-80
2023/09/24 09:34:17;;;;;;;8.77;4.53;;;15.90;99.90;;;;;;5012527;28;20075;-78
2023/09/24 09:36:43;;;;;;;7.28;4.60;;;16.00;99.90;;;;;;5000045;28;20056;-79
2023/09/24 09:39:09;;;;;;;8.40;4.75;;;16.00;99.90;;;;;;5015977;28;20124;-78
2023/09/24 09:41:35;;;;;;;9.38;4.32;;;16.00;99.90;;;;;;5015925;28;20045;-79
2023/09/24 09:44:13;;;;;;;7.07;4.28;;;16.10;99.90;;;;;;5032379;28;20034;-78
2023/09/24 09:46:43;;;;;;;9.60;4.13;;;16.20;99.90;;;;;;5007631;28;20382;-78
2023/09/24 09:49:10;;;;;;;5.45;3.72;;;16.20;99.90;;;;;;5032321;28;20386;-79
2023/09/24 09:51:46;;;;;;;6.90;3.60;;;16.20;99.90;;;;;;5032055;28;20053;-79
2023/09/24 09:54:13;;;;;;;6.85;3.22;;;16.30;99.90;;;;;;5002572;28;20398;-79
2023/09/24 09:56:41;;;;;;;6.65;3.28;;;16.40;99.90;;;;;;5011786;28;20037;-78
2023/09/24 09:59:08;;;;;;;7.43;3.40;;;16.40;99.90;;;;;;4999514;28;20176;-79
2023/09/24 10:01:34;;;;;;;5.05;3.05;;;16.50;99.90;;;;;;5015981;28;20048;-79
2023/09/24 10:04:05;;;;;;;7.93;3.20;;;16.50;99.90;;;;;;4990670;28;20062;-79
2023/09/24 10:06:35;;;;;;;6.97;3.40;;;16.60;99.90;;;;;;5011508;28;20366;-79
2023/09/24 10:09:01;;;;;;;4.40;2.97;;;16.70;99.90;;;;;;4999418;28;20117;-78
2023/09/24 10:11:33;;;;;;;6.35;2.95;;;16.80;99.90;;;;;;5031553;28;20052;-79
2023/09/24 10:14:00;;;;;;;10.02;3.10;;;16.90;99.90;;;;;;5015727;28;20072;-79
2023/09/24 10:16:26;;;;;;;7.75;3.30;;;16.90;99.90;;;;;;5031785;28;20057;-78
2023/09/24 10:18:56;;;;;;;6.43;2.60;;;16.90;99.90;;;;;;5014842;28;20052;-79
2023/09/24 10:21:32;;;;;;;4.13;2.53;;;17.00;99.90;;;;;;5014056;28;20052;-78
2023/09/24 10:23:59;;;;;;;7.03;3.22;;;17.10;99.90;;;;;;5031355;28;20044;-78
2023/09/24 10:26:50;;;;;;;6.80;3.30;;;17.20;99.90;;;;;;5014921;28;20033;-78
2023/09/24 10:29:39;;;;;;;5.63;3.30;;;17.10;99.90;;;;;;5013950;28;20037;-78
2023/09/24 10:32:09;;;;;;;9.27;3.30;;;17.10;99.90;;;;;;5023561;28;20045;-79
2023/09/24 10:34:55;;;;;;;6.78;2.97;;;17.30;99.90;;;;;;5014740;28;20526;-78
2023/09/24 10:37:22;;;;;;;6.95;3.13;;;17.40;99.90;;;;;;5014910;28;20045;-79
2023/09/24 10:40:09;;;;;;;5.72;3.10;;;17.30;99.90;;;;;;5001764;28;20064;-78
2023/09/24 10:42:34;;;;;;;5.60;2.83;;;17.40;99.90;;;;;;5031393;28;20073;-78
2023/09/24 10:45:06;;;;;;;4.10;2.63;;;17.30;99.90;;;;;;5014227;28;20079;-78
2023/09/24 10:47:35;;;;;;;5.28;2.83;;;17.30;99.90;;;;;;5001047;28;20577;-79
2023/09/24 10:50:09;;;;;;;5.43;2.45;;;17.40;99.90;;;;;;5022644;28;20069;-78
2023/09/24 10:52:52;;;;;;;5.85;2.70;;;17.40;99.90;;;;;;5022452;28;20053;-79
2023/09/24 10:55:27;;;;;;;5.00;2.53;;;17.50;99.90;;;;;;5030839;28;20041;-79
2023/09/24 10:57:55;;;;;;;5.60;2.55;;;17.60;99.90;;;;;;5014540;28;20451;-79
2023/09/24 11:00:23;;;;;;;6.07;2.75;;;17.60;99.90;;;;;;5014894;28;20048;-79
2023/09/24 11:02:56;;;;;;;5.75;2.50;;;17.70;99.90;;;;;;5014438;28;20558;-78
2023/09/24 11:05:23;;;;;;;6.50;2.47;;;17.70;99.90;;;;;;5014298;28;20053;-79
2023/09/24 11:07:48;;;;;;;7.88;2.45;;;17.80;99.90;;;;;;5030698;28;20051;-79
2023/09/24 11:10:21;;;;;;;5.80;2.65;;;17.90;99.90;;;;;;4993744;28;20121;-79
2023/09/24 11:12:57;;;;;;;4.82;2.63;;;17.90;99.90;;;;;;5008655;28;20045;-79
2023/09/24 11:15:24;;;;;;;5.80;2.53;;;17.90;99.90;;;;;;5030994;28;20389;-79
2023/09/24 11:17:50;;;;;;;7.38;2.45;;;18.00;99.90;;;;;;5014524;28;20580;-78
2023/09/24 11:20:23;;;;;;;4.10;2.15;;;18.00;99.90;;;;;;5030163;28;20152;-78
2023/09/24 11:22:59;;;;;;;6.35;2.30;;;17.90;99.90;;;;;;5015027;28;20029;-78
2023/09/24 11:25:26;;;;;;;4.95;2.47;;;18.00;99.90;;;;;;5013493;28;20046;-78
2023/09/24 11:27:53;;;;;;;4.22;2.10;;;18.00;99.90;;;;;;5029472;28;20033;-79
2023/09/24 11:30:21;;;;;;;4.47;1.92;;;18.10;99.90;;;;;;5026689;28;20552;-79
2023/09/24 11:32:51;;;;;;;4.32;1.92;;;18.10;99.90;;;;;;5013763;28;20526;-79
2023/09/24 11:35:22;;;;;;;4.50;2.20;;;18.20;99.90;;;;;;4997636;28;20048;-79
2023/09/24 11:37:53;;;;;;;4.07;1.95;;;18.20;99.90;;;;;;4994370;28;20057;-78
2023/09/24 11:40:33;;;;;;;5.18;1.88;;;18.30;99.90;;;;;;5006950;28;20072;-79
2023/09/24 11:43:01;;;;;;;6.07;2.20;;;18.30;99.90;;;;;;5029199;28;20489;-79
2023/09/24 11:45:39;;;;;;;4.30;1.80;;;18.30;99.90;;;;;;5029671;28;20037;-78
2023/09/24 11:48:10;;;;;;;3.97;1.73;;;18.40;99.90;;;;;;5029863;28;20041;-78
2023/09/24 11:50:38;;;;;;;5.43;2.30;;;18.40;99.90;;;;;;5030299;28;20436;-78
2023/09/24 11:53:04;;;;;;;5.40;2.00;;;18.50;99.90;;;;;;4997163;28;20416;-78
2023/09/24 11:55:30;;;;;;;3.88;1.90;;;18.60;99.90;;;;;;5012290;28;20042;-78
2023/09/24 11:57:55;;;;;;;4.30;1.80;;;18.60;99.90;;;;;;5013347;28;20041;-78
2023/09/24 12:00:22;;;;;;;4.25;1.83;;;18.50;99.90;;;;;;5013437;28;20057;-79
2023/09/24 12:02:48;;;;;;;3.53;1.70;;;18.60;99.90;;;;;;5029694;28;20037;-78
2023/09/24 12:05:15;;;;;;;2.80;1.88;;;18.70;99.90;;;;;;5013026;28;20053;-79
2023/09/24 12:07:41;;;;;;;3.83;2.03;;;18.70;99.90;;;;;;5029453;28;20120;-78
2023/09/24 12:10:07;;;;;;;3.33;1.70;;;18.70;99.90;;;;;;5023264;28;20080;-78
2023/09/24 12:12:33;;;;;;;4.38;1.90;;;18.70;99.90;;;;;;5029243;28;20045;-78
2023/09/24 12:14:59;;;;;;;3.90;2.00;;;18.70;99.90;;;;;;5030081;28;20107;-78
2023/09/24 12:17:24;;;;;;;4.72;2.13;;;18.70;99.90;;;;;;5013391;28;20536;-78
2023/09/24 12:19:52;;;;;;;6.03;1.52;;;18.70;99.90;;;;;;5012973;28;20107;-78
2023/09/24 12:22:18;;;;;;;4.53;1.80;;;18.70;99.90;;;;;;5007460;28;20088;-78
2023/09/24 12:24:44;;;;;;;4.35;1.67;;;18.80;99.90;;;;;;5023721;28;20041;-79
2023/09/24 12:27:10;;;;;;;2.13;1.42;;;18.70;99.90;;;;;;5013255;28;20049;-79
2023/09/24 12:29:35;;;;;;;3.95;1.73;;;18.80;99.90;;;;;;5012876;28;20456;-81
2023/09/24 12:32:01;;;;;;;4.22;2.08;;;18.90;99.90;;;;;;4997144;28;20076;-79
2023/09/24 12:34:26;;;;;;;4.03;1.75;;;19.00;99.90;;;;;;4980946;28;20038;-79
2023/09/24 12:36:52;;;;;;;4.22;2.13;;;19.00;99.90;;;;;;5027382;28;20482;-79
2023/09/24 12:39:20;;;;;;;3.75;1.80;;;19.00;99.90;;;;;;5013294;28;20551;-79
2023/09/24 12:41:49;;;;;;;4.82;2.00;;;19.20;99.90;;;;;;5010845;28;20121;-79
2023/09/24 12:44:17;;;;;;;5.70;2.15;;;19.10;99.90;;;;;;5012662;28;20063;-79